Werte bis 5 Uhr SommerzeitDiagramme Eichhof: Tagesdaten Monatsdaten WindroseCSV-Datei: Eichhof21.csv

Wetterdaten 2021 Station: Eichhof
Temperaturen in °C relative Nieder- Global- Wind Wind Wind- Sonnen-
Datum Boden Boden Luft Luft Luft Luft Feuchte schlag strahlung max richtung schein
20 cm 5 cm 20 cm 2 m 2 m max 2 m min % mm W/m2*d m/s m/s ° h

25.10.2021 8,7 0,0 3,0 4,2 15,2 -2,3 86 0,0 2921 0,0 0,0 --- ---
24.10.2021 9,1 0,0 2,3 3,1 12,3 -0,9 92 0,0 2688 0,0 0,0 --- ---
23.10.2021 9,7 0,0 2,8 4,6 11,6 0,0 87 0,0 2262 0,0 0,0 --- ---
22.10.2021 10,3 0,0 4,2 6,5 10,4 2,1 79 1,6 2245 0,0 0,0 --- ---
21.10.2021 11,7 0,0 8,2 11,1 16,4 4,3 78 9,5 966 0,0 0,0 --- ---
20.10.2021 11,0 0,0 9,1 12,3 17,0 4,5 84 2,7 906 0,0 0,0 --- ---
19.10.2021 10,7 0,0 6,6 9,1 13,1 4,8 94 0,5 444 0,0 0,0 --- ---
18.10.2021 10,6 0,0 5,5 6,9 14,7 2,7 87 0,0 2411 0,0 0,0 --- ---
17.10.2021 10,7 0,0 5,4 6,6 13,7 3,3 87 0,0 2617 0,0 0,0 --- ---
16.10.2021 10,8 0,0 4,8 5,6 14,9 1,7 89 0,1 2619 0,0 0,0 --- ---
15.10.2021 11,3 0,0 6,0 8,5 11,8 4,6 91 0,4 883 0,0 0,0 --- ---
14.10.2021 11,2 0,0 7,3 9,5 11,1 7,5 91 1,7 680 0,0 0,0 --- ---
13.10.2021 10,8 0,0 5,6 7,1 13,0 3,0 87 0,1 2223 0,0 0,0 --- ---
12.10.2021 11,3 0,0 5,6 7,9 12,1 2,5 90 2,9 1177 0,0 0,0 --- ---
11.10.2021 11,1 0,0 4,7 6,2 13,4 2,1 91 0,0 1343 0,0 0,0 --- ---
10.10.2021 11,4 0,0 3,7 4,8 16,3 0,4 88 0,0 3012 0,0 0,0 --- ---
09.10.2021 12,4 0,0 5,6 7,9 14,6 2,5 78 0,0 4018 0,0 0,0 --- ---
08.10.2021 13,1 0,0 6,6 8,6 15,3 4,5 88 0,1 2249 0,0 0,0 --- ---
07.10.2021 13,8 0,0 9,1 11,0 16,4 5,9 85 0,1 2620 0,0 0,0 --- ---
06.10.2021 13,9 0,0 8,4 10,8 13,5 9,5 83 1,9 1683 0,0 0,0 --- ---
05.10.2021 14,1 0,0 9,4 11,5 14,8 9,5 89 11,5 1507 0,0 0,0 --- ---
04.10.2021 14,7 0,0 10,0 12,2 15,1 9,1 86 0,6 1569 0,0 0,0 --- ---
03.10.2021 14,5 0,0 14,3 17,9 21,3 14,2 64 0,3 722 0,0 0,0 --- ---
02.10.2021 13,7 0,0 10,2 12,7 19,9 6,5 77 0,0 3100 0,0 0,0 --- ---
01.10.2021 13,4 0,0 7,5 9,3 18,7 2,5 78 0,0 4142 0,0 0,0 --- ---
30.09.2021 14,0 0,0 6,8 8,9 15,0 4,0 76 0,0 3550 0,0 0,0 --- ---
29.09.2021 15,4 0,0 8,3 10,3 16,4 5,1 86 5,3 2208 0,0 0,0 --- ---
28.09.2021 16,5 0,0 11,5 13,0 19,3 8,6 82 2,5 4220 0,0 0,0 --- ---
27.09.2021 16,7 0,0 14,5 16,9 21,2 14,3 85 0,1 2457 0,0 0,0 --- ---
26.09.2021 16,0 0,0 14,1 16,0 24,4 9,5 86 3,0 3328 0,3 7,2 199 ---
25.09.2021 15,7 0,0 12,4 14,1 23,2 8,2 83 0,0 4597 0,3 4,5 180 ---
24.09.2021 15,5 0,0 13,4 16,0 19,4 13,4 81 0,0 1347 0,0 0,0 --- ---
23.09.2021 14,8 0,0 11,2 13,3 21,3 5,8 70 0,0 4594 0,1 11,3 220 ---
22.09.2021 14,6 0,0 9,4 11,0 19,9 4,9 82 0,0 3964 0,1 3,6 167 ---
21.09.2021 14,7 0,0 7,7 9,1 17,6 2,6 78 0,0 3344 0,0 0,0 --- ---
20.09.2021 15,4 0,0 8,2 9,9 14,2 5,1 71 0,0 2691 0,0 0,0 --- ---
19.09.2021 16,5 0,0 9,5 12,0 13,5 8,7 74 0,0 1367 0,0 0,0 --- ---
18.09.2021 17,1 0,0 12,8 14,4 19,4 11,0 78 0,0 3338 0,0 0,0 --- ---
17.09.2021 17,3 0,0 11,4 13,3 18,6 9,0 86 0,0 2419 0,0 0,0 --- ---
16.09.2021 18,3 0,0 13,5 15,8 19,7 11,2 81 0,2 2118 0,0 0,0 --- ---
15.09.2021 18,4 0,0 15,2 17,6 21,1 14,6 92 6,4 1586 0,0 0,0 --- ---
14.09.2021 18,0 0,0 15,2 17,0 26,7 10,1 80 0,0 4913 0,0 2,6 166 ---
13.09.2021 18,1 0,0 13,4 14,8 22,2 10,5 81 0,0 4551 0,0 0,0 --- ---
12.09.2021 18,6 0,0 14,7 16,5 22,9 11,4 81 0,0 4311 0,0 0,0 --- ---
11.09.2021 18,9 0,0 15,9 18,2 22,6 16,1 87 2,0 2729 0,0 0,0 --- ---
10.09.2021 18,7 0,0 17,0 19,2 25,5 16,3 85 2,5 3409 0,0 0,0 --- ---
09.09.2021 17,7 0,0 15,9 17,5 27,1 9,0 78 7,0 5032 0,0 0,0 --- ---
08.09.2021 17,5 0,0 14,8 16,7 26,5 9,5 75 0,0 5415 0,0 0,0 --- ---
07.09.2021 17,6 0,0 14,4 16,2 25,6 10,5 76 0,0 5150 0,0 0,0 --- ---
06.09.2021 17,2 0,0 14,0 15,6 26,4 8,5 80 0,0 4975 0,0 0,0 --- ---
05.09.2021 17,2 0,0 12,3 14,5 22,9 8,2 80 0,0 4936 0,0 0,0 --- ---
04.09.2021 17,4 0,0 13,7 15,5 24,3 8,8 76 0,1 5801 0,0 0,0 --- ---
03.09.2021 17,0 0,0 14,0 15,3 26,2 9,0 78 0,0 5604 0,0 0,0 --- ---
02.09.2021 16,6 0,0 12,6 14,0 23,5 8,2 79 0,1 5232 0,0 0,0 --- ---
01.09.2021 16,7 0,0 11,4 13,2 18,7 8,9 83 0,0 2844 0,0 0,0 --- ---
31.08.2021 16,9 0,0 13,2 15,2 20,5 10,1 79 0,0 4031 0,0 0,0 --- ---
30.08.2021 16,9 0,0 13,1 15,6 18,2 13,6 84 5,7 1704 0,0 0,0 --- ---
29.08.2021 16,8 0,0 12,8 14,7 17,4 13,3 89 19,8 1906 0,0 0,0 --- ---
28.08.2021 16,7 0,0 12,5 14,2 18,7 10,5 80 3,5 3270 0,0 0,0 --- ---
27.08.2021 16,9 0,0 10,9 13,2 17,4 10,3 85 3,5 1736 0,0 0,0 --- ---
26.08.2021 17,4 0,0 12,8 14,9 20,9 10,8 76 0,0 3464 0,0 0,0 --- ---
25.08.2021 16,9 0,0 13,1 14,4 23,1 5,9 71 0,0 5961 0,0 0,0 --- ---
24.08.2021 17,1 0,0 10,8 12,7 20,3 6,4 78 0,0 4429 0,0 0,0 --- ---
23.08.2021 18,2 0,0 12,8 14,9 19,3 9,8 88 0,4 1681 0,0 0,0 --- ---
22.08.2021 18,9 0,0 14,0 16,3 22,2 12,9 88 4,3 2516 0,0 0,0 --- ---
21.08.2021 18,7 0,0 16,4 17,6 26,8 11,2 78 0,0 5307 0,0 0,0 --- ---
20.08.2021 18,4 0,0 15,6 17,5 23,5 13,4 75 0,0 4653 0,0 0,0 --- ---
19.08.2021 17,8 0,0 14,7 17,1 21,2 14,7 83 0,2 2644 0,0 0,0 --- ---
18.08.2021 17,5 0,0 12,8 15,1 18,6 12,2 87 1,1 1841 0,0 0,0 --- ---
17.08.2021 18,0 0,0 11,0 13,2 17,2 10,3 77 3,7 2828 0,0 0,0 --- ---
16.08.2021 19,6 0,0 13,2 15,5 20,6 10,4 75 3,0 3116 0,0 0,0 --- ---
15.08.2021 20,2 0,0 16,6 18,2 27,7 10,5 73 0,0 6565 0,0 0,0 --- ---
14.08.2021 20,2 0,0 17,7 19,4 28,1 12,5 71 0,0 6941 0,0 0,0 --- ---
13.08.2021 19,9 0,0 18,4 20,4 29,4 13,6 76 0,0 5578 0,0 0,0 --- ---
12.08.2021 19,1 0,0 17,2 18,7 27,0 12,2 78 0,0 5114 0,0 0,0 --- ---
11.08.2021 18,5 0,0 16,1 17,7 24,6 13,5 79 0,2 5444 0,0 0,0 --- ---
10.08.2021 17,6 0,0 12,9 14,6 22,2 9,1 87 12,4 4123 0,0 0,0 --- ---
09.08.2021 17,7 0,0 12,8 14,8 22,4 8,3 76 1,0 4624 0,0 0,0 --- ---
08.08.2021 18,3 0,0 12,7 15,0 21,3 10,2 79 1,3 4065 0,0 0,0 --- ---
07.08.2021 18,7 0,0 14,2 16,3 22,1 9,7 79 2,7 3262 0,0 0,0 --- ---
06.08.2021 19,1 0,0 15,0 17,2 21,8 13,5 79 0,1 3587 0,0 0,0 --- ---
05.08.2021 18,9 0,0 15,5 17,0 24,5 13,6 81 0,6 5044 0,0 0,0 --- ---
04.08.2021 18,3 0,0 14,6 16,1 23,7 13,2 83 0,4 3986 0,0 0,0 --- ---
03.08.2021 18,3 0,0 12,7 14,4 17,9 11,5 90 29,8 2964 0,0 0,0 --- ---
02.08.2021 18,8 0,0 13,8 15,6 20,8 12,7 85 6,9 3657 0,0 0,0 --- ---
01.08.2021 18,9 0,0 14,7 16,2 23,4 11,4 76 0,1 5011 0,0 0,0 --- ---
31.07.2021 19,1 0,0 15,2 17,4 22,1 11,7 62 0,0 5585 0,0 0,0 --- ---
30.07.2021 19,0 0,0 16,3 17,6 25,6 9,4 67 0,0 7518 0,0 0,0 --- ---
29.07.2021 19,4 0,0 14,8 17,2 23,1 12,3 67 0,0 4739 0,0 0,0 --- ---
28.07.2021 20,1 0,0 16,0 18,2 22,2 13,8 78 0,4 4421 0,0 0,0 --- ---
27.07.2021 20,5 0,0 16,9 18,5 24,3 14,2 77 0,9 5629 0,0 0,0 --- ---
26.07.2021 20,6 0,0 18,2 19,6 27,3 14,4 75 10,2 6379 0,0 0,0 --- ---
25.07.2021 20,2 0,0 18,5 20,0 28,2 13,8 74 12,0 5572 0,0 0,0 --- ---
24.07.2021 19,8 0,0 18,4 20,7 27,3 13,9 70 0,0 4730 0,0 0,0 --- ---
23.07.2021 19,1 0,0 17,5 18,5 27,7 9,7 66 0,0 7575 0,0 0,0 --- ---
22.07.2021 18,8 0,0 15,7 16,9 24,6 9,5 69 0,0 5649 0,0 0,0 --- ---
21.07.2021 18,8 0,0 14,7 15,8 23,4 7,6 67 0,0 6077 0,0 0,0 --- ---
20.07.2021 19,4 0,0 15,1 16,1 21,7 10,3 67 0,0 6919 0,0 0,0 --- ---
19.07.2021 19,9 0,0 15,8 17,1 22,9 12,6 73 0,5 6226 0,0 0,0 --- ---
18.07.2021 19,8 0,0 17,8 19,2 26,2 10,8 68 0,0 8345 0,0 0,0 --- ---
17.07.2021 19,6 0,0 18,1 20,1 26,1 16,9 71 0,0 5972 0,0 0,0 --- ---
16.07.2021 19,2 0,0 16,2 18,1 21,6 15,5 85 0,7 2623 0,0 0,0 --- ---
15.07.2021 18,8 0,0 16,0 17,2 25,2 11,8 80 4,2 5263 0,0 0,0 --- ---
14.07.2021 19,3 0,0 14,3 16,5 20,2 12,6 87 4,0 2264 0,0 0,0 --- ---
13.07.2021 19,7 0,0 16,5 18,7 25,1 14,9 85 7,7 2894 0,0 0,0 --- ---
12.07.2021 19,2 0,0 17,7 18,6 26,3 13,8 78 0,0 6077 0,0 0,0 --- ---
11.07.2021 18,8 0,0 14,2 16,2 20,0 13,0 91 7,8 2178 0,0 0,0 --- ---
10.07.2021 18,8 0,0 15,9 17,0 23,8 12,1 83 0,0 4202 0,0 0,0 --- ---
09.07.2021 19,2 0,0 13,6 15,8 17,1 13,2 92 24,8 1338 0,0 0,0 --- ---
08.07.2021 19,6 0,0 16,0 17,7 24,8 12,3 78 0,9 4074 0,0 0,0 --- ---
07.07.2021 19,4 0,0 17,1 18,4 24,9 13,7 72 0,0 6417 0,0 0,0 --- ---
06.07.2021 19,5 0,0 16,3 18,3 25,4 14,0 81 9,3 3521 0,0 0,0 --- ---
05.07.2021 19,4 0,0 15,6 17,3 20,8 14,1 84 5,3 3230 0,0 0,0 --- ---
04.07.2021 19,6 0,0 16,1 17,5 25,4 12,2 81 8,1 4561 0,0 0,0 --- ---
03.07.2021 18,7 0,0 16,0 16,7 26,2 9,3 73 0,0 7398 0,0 0,0 --- ---
02.07.2021 18,0 0,0 13,9 15,3 22,3 11,4 79 4,0 4612 0,0 0,0 --- ---
01.07.2021 19,0 0,0 11,8 13,9 15,0 12,8 91 6,0 1297 0,0 0,0 --- ---
30.06.2021 20,2 0,0 14,9 16,7 20,6 14,5 81 7,7 3525 0,0 0,0 --- ---
29.06.2021 21,1 0,0 18,3 19,5 27,7 15,6 80 52,6 5818 0,0 0,0 --- ---
28.06.2021 21,1 0,0 21,4 22,6 29,6 15,7 66 16,1 5371 0,0 0,0 --- ---
27.06.2021 20,3 0,0 18,5 20,0 26,9 12,0 62 0,0 7379 0,0 0,0 --- ---
26.06.2021 19,8 0,0 16,3 17,2 26,2 9,7 74 1,6 6406 0,0 0,0 --- ---
25.06.2021 19,8 0,0 16,4 17,7 23,1 12,5 73 2,8 5694 0,3 2,9 193 ---
24.06.2021 20,0 0,0 15,1 16,9 20,2 13,1 76 0,0 3565 2,1 7,1 50 ---
23.06.2021 20,2 0,0 16,4 17,7 23,0 12,4 73 0,0 5707 2,4 7,6 34 ---
22.06.2021 21,0 0,0 14,4 15,7 19,3 13,5 79 0,5 3926 2,6 7,4 26 ---
21.06.2021 22,3 0,0 19,0 20,3 25,2 15,0 71 15,6 7382 3,4 13,4 210 ---
20.06.2021 22,9 0,0 21,8 23,1 28,9 19,1 68 0,0 6176 2,0 11,8 199 ---
19.06.2021 22,9 0,0 23,8 24,5 33,3 18,1 64 0,0 8190 1,6 8,2 207 ---
18.06.2021 22,2 0,0 23,5 23,9 34,0 13,0 62 0,0 8376 1,0 5,5 183 ---
17.06.2021 21,4 0,0 22,9 23,6 33,0 12,8 60 0,0 8694 1,2 9,3 172 ---
16.06.2021 20,6 0,0 20,9 21,8 30,8 14,2 67 0,0 7801 1,4 7,1 56 ---
15.06.2021 19,8 0,0 18,6 19,5 28,5 10,0 66 0,0 6890 1,4 8,3 37 ---
14.06.2021 18,9 0,0 17,0 17,2 26,8 6,5 62 0,0 9145 1,3 5,7 198 ---
13.06.2021 18,8 0,0 14,5 15,0 22,1 7,5 58 0,0 8502 1,5 8,5 325 ---
12.06.2021 19,7 0,0 16,9 18,7 24,6 13,5 67 0,0 5540 2,2 10,3 248 ---
11.06.2021 19,5 0,0 18,5 19,6 28,8 12,1 70 0,0 6734 1,2 6,0 224 ---
10.06.2021 19,2 0,0 18,2 19,0 26,9 13,7 75 0,1 6078 0,8 6,8 126 ---
09.06.2021 18,7 0,0 17,3 18,2 26,5 13,2 79 1,2 5549 1,0 9,4 112 ---
08.06.2021 18,0 0,0 17,2 18,5 24,2 14,7 75 0,0 5215 1,6 6,4 32 ---
07.06.2021 17,8 0,0 14,9 16,7 18,5 15,1 88 1,8 1898 1,5 4,7 44 ---
06.06.2021 18,4 0,0 15,2 17,0 19,1 15,9 85 0,0 2227 1,6 7,7 4 ---
05.06.2021 18,8 0,0 17,5 18,7 25,2 15,8 82 7,6 4523 1,7 8,6 215 ---
04.06.2021 18,4 0,0 18,1 19,1 27,9 13,2 79 1,5 4996 0,9 8,7 195 ---
03.06.2021 17,4 0,0 18,1 18,5 28,5 8,2 63 0,0 6704 1,2 8,3 195 ---
02.06.2021 16,5 0,0 16,7 17,1 26,8 7,6 60 0,0 7883 0,9 7,9 141 ---
01.06.2021 15,6 0,0 15,1 15,3 23,5 4,6 57 0,0 8724 1,5 7,1 47 ---
31.05.2021 14,9 0,0 13,5 13,9 21,3 4,8 58 0,0 9114 1,8 8,4 71 ---
30.05.2021 14,2 0,0 11,3 12,2 20,1 3,1 67 0,0 7100 1,7 8,9 45 ---
29.05.2021 13,6 0,0 10,6 11,4 18,3 4,9 70 0,0 7160 1,9 8,0 29 ---
28.05.2021 12,8 0,0 11,0 12,1 17,9 7,0 68 0,1 5198 1,6 8,9 1 ---
27.05.2021 12,1 0,0 8,3 10,2 13,2 7,1 83 6,4 2323 2,9 9,9 225 ---
26.05.2021 12,2 0,0 7,5 9,0 13,1 6,7 90 18,0 3221 2,4 9,9 210 ---
25.05.2021 12,9 0,0 7,6 9,1 12,3 8,0 82 5,4 3304 4,4 14,4 213 ---
24.05.2021 12,8 0,0 10,5 11,7 20,7 1,9 66 0,1 6532 2,2 12,6 201 ---
23.05.2021 12,3 0,0 8,3 10,1 16,1 3,2 70 0,5 5135 2,8 13,6 219 ---
22.05.2021 13,0 0,0 8,8 10,5 15,1 6,7 73 10,0 3132 4,6 16,6 215 ---
21.05.2021 13,6 0,0 11,9 13,5 17,4 9,4 57 0,0 6229 4,3 16,5 210 ---
20.05.2021 13,2 0,0 10,3 11,6 17,0 6,9 69 1,2 5485 2,3 10,4 216 ---
19.05.2021 12,7 0,0 9,3 10,5 17,2 4,5 70 0,0 5630 2,3 8,9 235 ---
18.05.2021 12,8 0,0 8,7 10,2 14,9 6,7 82 4,3 4807 2,4 13,0 221 ---
17.05.2021 13,0 0,0 8,6 10,1 13,9 6,1 86 9,7 3945 2,4 10,0 209 ---
16.05.2021 13,0 0,0 9,5 10,5 16,0 7,5 84 12,8 4644 1,9 14,0 203 ---
15.05.2021 13,1 0,0 9,1 10,6 15,5 6,1 73 0,9 4580 3,1 14,2 203 ---
14.05.2021 13,3 0,0 11,5 13,0 18,3 8,3 67 0,8 5177 2,5 9,7 221 ---
13.05.2021 13,1 0,0 10,4 11,8 16,7 7,7 79 0,0 2746 1,0 6,7 213 ---
12.05.2021 13,4 0,0 11,2 12,9 16,1 8,4 75 1,3 2870 1,7 6,7 244 ---
11.05.2021 13,4 0,0 12,3 13,9 17,7 10,3 87 4,1 1903 1,2 6,0 262 ---
10.05.2021 13,2 0,0 15,1 16,3 23,1 9,5 67 2,4 4724 2,7 15,8 217 ---
09.05.2021 11,1 0,0 15,8 16,5 27,3 3,8 58 0,0 7605 2,3 13,8 201 ---
08.05.2021 9,0 0,0 7,5 8,0 15,3 -1,3 60 0,0 5767 2,4 9,9 208 ---
07.05.2021 8,9 0,0 5,5 6,5 10,8 1,5 67 3,4 4385 2,4 12,1 241 ---
06.05.2021 8,5 0,0 4,8 5,7 11,5 0,7 77 4,8 3771 2,2 10,9 205 ---
05.05.2021 8,9 0,0 4,4 5,4 9,9 1,4 79 4,4 3964 3,7 19,9 222 ---
04.05.2021 9,8 0,0 8,1 9,0 12,6 5,0 64 8,7 1713 5,6 23,3 213 ---
03.05.2021 9,9 0,0 7,4 7,3 14,0 -0,1 57 0,0 6752 3,0 13,4 217 ---
02.05.2021 10,5 0,0 7,6 8,0 11,0 2,9 53 0,0 2879 2,4 12,4 277 ---
01.05.2021 10,7 0,0 9,5 9,9 14,8 5,5 65 0,0 3326 1,4 6,7 242 ---
30.04.2021 10,6 0,0 7,4 7,7 11,4 3,8 72 0,0 2496 1,7 5,6 177 ---
29.04.2021 11,4 0,0 9,9 10,6 15,8 5,3 69 4,2 4401 3,5 15,6 214 ---
28.04.2021 10,2 0,0 11,0 11,1 20,4 0,4 53 0,1 6712 1,4 10,9 68 ---
27.04.2021 9,4 0,0 7,5 7,5 14,1 -0,5 47 0,0 7721 2,8 8,9 35 ---
26.04.2021 9,2 0,0 5,4 5,5 11,9 -2,2 50 0,0 7806 2,3 9,0 42 ---
25.04.2021 9,6 0,0 4,7 5,0 11,0 -1,5 63 0,0 7321 2,0 8,5 15 ---
24.04.2021 9,5 0,0 5,7 6,3 14,4 -1,5 64 0,0 6709 1,7 9,3 30 ---
23.04.2021 9,4 0,0 5,1 5,7 14,1 -1,8 66 0,0 6498 1,1 7,4 338 ---
22.04.2021 9,8 0,0 5,6 6,6 11,4 0,0 55 0,0 6644 2,1 10,8 333 ---
21.04.2021 10,0 0,0 8,7 10,1 16,7 5,3 71 0,1 4037 1,8 11,2 241 ---
20.04.2021 8,8 0,0 6,4 7,6 17,4 0,0 79 9,8 5333 1,1 11,0 202 ---
19.04.2021 8,4 0,0 6,2 7,8 13,0 2,8 78 0,0 3731 1,8 7,8 38 ---
18.04.2021 7,5 0,0 5,9 7,2 13,2 4,1 84 6,8 2488 0,9 6,1 292 ---
17.04.2021 6,7 0,0 3,2 4,7 9,3 -1,2 67 0,0 2388 1,0 7,3 9 ---
16.04.2021 6,5 0,0 3,7 5,1 9,6 1,1 60 0,0 2928 2,1 10,3 38 ---
15.04.2021 6,2 0,0 0,7 1,9 8,1 -3,5 75 0,0 3616 1,5 10,9 34 ---
14.04.2021 6,4 0,0 0,3 1,5 8,2 -3,4 79 0,7 4486 1,2 10,2 29 ---
13.04.2021 6,7 0,0 1,0 2,0 8,3 -2,9 75 0,0 3901 1,5 11,8 245 ---
12.04.2021 7,3 0,0 2,4 3,6 8,6 0,5 73 0,0 3825 1,5 9,6 243 ---
11.04.2021 7,7 0,0 5,4 7,1 14,4 2,2 89 5,6 1313 1,4 14,7 243 ---
10.04.2021 6,9 0,0 5,7 6,9 9,1 4,5 92 13,6 1510 1,0 3,9 50 ---
09.04.2021 5,6 0,0 4,1 5,1 13,2 -2,9 65 0,0 4508 1,8 10,0 206 ---
08.04.2021 5,2 0,0 1,2 2,2 6,0 -1,4 72 0,5 3115 2,7 10,0 218 ---
07.04.2021 5,4 0,0 0,3 1,0 3,9 -0,8 84 4,3 1714 3,6 11,5 215 ---
06.04.2021 5,9 0,0 0,9 1,2 6,2 -1,2 77 2,2 4045 3,7 16,7 229 ---
05.04.2021 7,2 0,0 1,5 2,4 5,5 -1,2 81 5,4 1219 3,0 11,8 239 ---
04.04.2021 8,1 0,0 4,1 4,4 11,3 0,3 73 0,0 3848 1,4 6,7 237 ---
03.04.2021 8,7 0,0 4,8 5,4 11,1 0,9 68 0,1 4254 2,0 10,4 349 ---
02.04.2021 9,5 0,0 6,7 7,1 11,2 5,2 66 0,0 3815 2,5 10,2 353 ---
01.04.2021 10,0 0,0 9,5 11,3 23,2 3,1 63 0,0 4937 2,3 12,6 267 ---
31.03.2021 9,3 0,0 9,6 11,5 24,3 0,3 61 0,0 5815 1,3 5,9 200 ---
30.03.2021 8,5 0,0 8,4 10,1 22,7 0,0 63 0,0 5950 1,3 4,8 200 ---
29.03.2021 7,5 0,0 8,3 10,7 19,1 2,6 60 0,0 5451 2,5 10,2 203 ---
28.03.2021 6,0 0,0 3,8 5,8 12,8 -1,6 71 0,0 3283 3,0 12,5 221 ---
27.03.2021 7,1 0,0 2,1 4,2 8,3 -0,2 85 11,4 2552 2,9 16,8 220 ---
26.03.2021 7,4 0,0 6,8 8,8 15,7 2,6 68 0,0 4643 2,0 9,3 204 ---
25.03.2021 6,3 0,0 5,1 7,0 16,2 -1,3 72 0,2 3627 1,4 7,0 212 ---
24.03.2021 5,4 0,0 3,2 4,8 14,8 -2,6 74 0,0 5319 1,9 7,7 213 ---
23.03.2021 5,5 0,0 2,8 4,9 7,8 -0,1 78 0,0 1246 1,7 5,5 220 ---
22.03.2021 5,0 0,0 3,1 4,7 8,0 2,2 71 0,2 1874 1,4 7,0 326 ---
21.03.2021 4,6 0,0 2,9 4,6 7,6 1,9 63 0,1 1977 2,9 14,8 280 ---
20.03.2021 3,9 0,0 -0,3 0,8 5,9 -4,7 52 0,0 4711 1,5 6,0 59 ---
19.03.2021 4,3 0,0 -0,2 1,4 5,8 -1,6 80 1,4 3157 2,5 17,5 37 ---
18.03.2021 3,9 0,0 -0,5 0,9 6,5 -4,1 81 0,6 2321 1,1 5,9 226 ---
17.03.2021 4,7 0,0 -0,1 1,8 5,6 -2,6 74 0,0 1866 1,3 6,9 337 ---
16.03.2021 5,0 0,0 2,2 4,2 8,3 -0,1 74 1,7 2628 1,4 10,4 297 ---
15.03.2021 5,0 0,0 2,4 4,3 7,6 2,0 81 4,2 1974 2,4 10,1 230 ---
14.03.2021 4,9 0,0 2,5 4,5 7,3 2,9 76 0,6 2267 4,2 13,0 222 ---
13.03.2021 5,3 0,0 3,0 5,4 8,2 2,8 81 7,5 1305 5,4 26,5 213 ---
12.03.2021 5,5 0,0 4,1 6,2 9,2 2,2 68 7,3 2508 5,7 20,1 218 ---
11.03.2021 5,2 0,0 5,5 8,0 12,0 5,3 74 4,3 1224 5,6 16,1 211 ---
10.03.2021 4,1 0,0 3,1 4,8 8,2 1,9 77 0,0 2339 2,0 11,1 215 ---
09.03.2021 3,0 0,0 -0,5 1,1 5,1 -1,9 89 4,9 1522 1,1 6,5 213 ---
08.03.2021 2,9 0,0 -1,9 -0,3 4,6 -3,6 84 0,0 1359 1,4 5,1 227 ---
07.03.2021 3,1 0,0 -2,2 -0,8 8,2 -6,7 74 0,0 4640 1,2 8,2 233 ---
06.03.2021 3,6 0,0 -2,6 -1,1 7,5 -6,3 74 0,0 4430 0,8 6,3 173 ---
05.03.2021 5,0 0,0 0,1 2,0 5,3 -3,8 71 0,0 1850 2,2 8,0 23 ---
04.03.2021 5,3 0,0 2,9 4,9 9,6 0,9 90 3,4 1080 1,6 7,4 249 ---
03.03.2021 4,9 0,0 1,9 4,1 15,2 -2,7 78 0,0 2791 1,6 7,0 213 ---
02.03.2021 5,2 0,0 3,1 4,7 15,8 -0,1 81 0,0 3432 1,5 4,9 81 ---
01.03.2021 4,5 0,0 1,8 3,5 9,0 -1,6 88 0,0 2575 2,9 7,8 27 ---
28.02.2021 4,6 0,0 1,8 3,8 10,8 -2,5 77 0,0 4011 1,3 6,1 34 ---
27.02.2021 4,5 0,0 1,3 2,9 6,0 -0,2 85 0,0 1098 1,3 6,2 317 ---
26.02.2021 5,2 0,0 1,2 3,6 6,5 0,7 92 1,9 624 1,1 9,3 203 ---
25.02.2021 5,6 0,0 5,1 7,6 19,0 0,7 78 0,0 3269 1,6 6,4 203 ---
24.02.2021 5,0 0,0 5,1 7,7 18,4 0,1 81 0,0 3079 1,4 8,1 199 ---
23.02.2021 4,0 0,0 4,8 7,0 18,6 -0,5 79 0,0 2860 1,5 10,9 205 ---
22.02.2021 3,2 0,0 1,1 3,1 13,2 -2,7 83 0,0 3027 1,2 4,7 232 ---
21.02.2021 2,8 0,0 2,4 4,6 18,4 -2,4 79 0,0 3510 1,0 7,7 194 ---
20.02.2021 1,8 0,0 1,5 3,5 15,5 -1,9 86 0,0 2602 0,5 5,9 178 ---
19.02.2021 1,1 0,0 1,5 3,8 9,0 -0,8 82 0,9 2759 1,6 9,3 205 ---
18.02.2021 0,8 0,0 -0,8 0,9 7,5 -2,3 93 0,0 1461 0,6 3,2 196 ---
17.02.2021 0,7 0,0 1,1 3,8 8,7 -1,5 87 2,9 1274 1,5 6,3 219 ---
16.02.2021 0,7 0,0 -0,1 2,4 9,1 -1,0 88 0,0 1985 1,4 7,3 208 ---
15.02.2021 0,7 0,0 -8,5 -6,9 0,9 -14,3 86 0,4 745 1,4 9,5 209 ---
14.02.2021 0,8 0,0 -14,3 -12,5 0,5 -20,8 82 0,0 3473 0,4 3,3 184 ---
13.02.2021 1,0 0,0 -13,4 -11,1 -3,7 -18,9 81 0,0 3367 1,6 6,1 21 ---
12.02.2021 1,2 0,0 -11,7 -9,9 -4,6 -14,5 82 0,0 2772 2,2 10,4 34 ---
11.02.2021 1,3 0,0 -8,1 -7,1 1,0 -11,3 78 0,1 1632 0,8 5,6 291 ---
10.02.2021 1,4 0,0 -13,2 -12,2 -5,5 -19,4 80 0,0 2958 2,3 9,6 38 ---
09.02.2021 1,7 0,0 -12,2 -11,8 -7,9 -17,3 75 0,0 2273 1,5 6,0 31 ---
08.02.2021 1,9 0,0 -8,8 -8,5 -7,3 -10,3 83 2,3 1127 4,3 9,1 31 ---
07.02.2021 2,5 0,0 -5,9 -4,5 -1,3 -7,3 83 4,7 288 6,0 13,2 31 ---
06.02.2021 3,9 0,0 -0,5 1,4 4,4 -1,6 91 4,5 291 4,3 13,1 32 ---
05.02.2021 4,1 0,0 0,7 2,8 5,6 -1,0 93 3,6 636 0,6 2,8 12 ---
04.02.2021 5,2 0,0 3,9 6,2 9,3 0,5 79 2,0 1507 2,9 10,0 225 ---
03.02.2021 4,0 0,0 4,7 7,4 10,6 2,8 92 14,5 423 1,9 11,8 216 ---
02.02.2021 2,7 0,0 2,4 4,5 8,0 1,9 94 2,9 368 1,4 8,4 216 ---
01.02.2021 1,7 0,0 -0,8 0,9 3,1 -1,3 93 1,4 633 1,6 4,1 34 ---
31.01.2021 2,0 0,0 -2,9 -1,1 4,1 -5,2 75 0,0 2262 2,0 8,6 44 ---
30.01.2021 3,4 0,0 0,0 1,8 7,1 -0,9 78 2,2 718 4,2 11,0 20 ---
29.01.2021 2,8 0,0 2,3 4,4 9,9 1,2 89 15,2 522 2,4 10,7 195 ---
28.01.2021 2,1 0,0 0,1 1,9 3,0 1,3 96 14,7 179 1,6 5,6 184 ---
27.01.2021 1,7 0,0 -1,5 0,4 1,4 -1,1 90 0,7 356 2,4 8,0 217 ---
26.01.2021 1,8 0,0 -1,8 0,2 3,5 -2,9 88 1,9 587 2,1 8,6 231 ---
25.01.2021 2,2 0,0 -3,1 -1,2 1,7 -3,5 91 0,3 788 0,9 3,5 247 ---
24.01.2021 3,0 0,0 -0,8 1,2 2,2 -1,0 89 0,9 462 1,7 7,2 251 ---
23.01.2021 3,4 0,0 -0,5 1,6 3,6 -0,5 93 0,1 382 1,3 5,7 207 ---
22.01.2021 4,2 0,0 2,9 5,2 10,1 0,4 87 5,0 472 3,3 16,8 202 ---
21.01.2021 3,0 0,0 4,2 7,2 10,9 3,5 66 2,9 399 4,2 15,7 211 ---
20.01.2021 2,3 0,0 1,0 3,8 8,8 -0,7 69 0,0 995 1,9 8,4 213 ---
19.01.2021 1,9 0,0 0,7 2,8 4,2 1,3 85 3,5 207 4,8 12,8 215 ---
18.01.2021 1,2 0,0 -0,5 1,6 3,2 -0,6 89 0,5 585 3,0 8,5 217 ---
17.01.2021 1,1 0,0 -3,3 -1,8 -0,6 -3,3 88 1,6 373 1,1 4,0 212 ---
16.01.2021 1,3 0,0 -3,2 -1,7 -0,6 -2,4 64 0,0 426 1,9 5,9 244 ---
15.01.2021 1,5 0,0 -2,8 -0,8 0,9 -4,0 81 0,0 367 1,2 4,9 360 ---
14.01.2021 1,6 0,0 -1,1 0,8 3,5 -0,2 70 0,4 934 1,4 9,5 352 ---
13.01.2021 1,5 0,0 -1,5 0,7 3,4 -2,1 81 0,8 741 3,7 11,5 218 ---
12.01.2021 1,5 0,0 -1,0 1,2 3,1 -0,4 88 2,8 268 3,2 9,8 219 ---
11.01.2021 1,7 0,0 -3,6 -2,2 0,7 -5,7 79 0,0 1067 2,8 9,2 216 ---
10.01.2021 2,2 0,0 -2,4 -0,8 1,8 -4,4 88 0,0 829 1,4 3,7 225 ---
09.01.2021 2,3 0,0 -2,1 -0,3 2,2 -1,9 85 0,0 513 0,9 6,2 226 ---
08.01.2021 2,6 0,0 -1,4 0,4 1,5 -0,4 94 2,0 525 1,6 5,2 206 ---
07.01.2021 2,8 0,0 -1,4 0,4 1,5 -0,2 89 0,5 380 2,2 6,8 210 ---
06.01.2021 2,9 0,0 -0,4 1,5 2,3 0,8 87 0,0 166 1,6 7,1 14 ---
05.01.2021 2,8 0,0 -0,8 0,9 1,6 0,5 91 0,1 290 3,3 7,7 33 ---
04.01.2021 2,9 0,0 -1,1 0,7 1,0 0,3 88 0,0 152 3,1 7,1 27 ---
03.01.2021 3,2 0,0 -0,6 1,3 2,3 0,1 82 0,5 122 3,5 9,7 27 ---
02.01.2021 3,5 0,0 -0,4 1,4 3,1 0,3 85 0,0 508 1,4 8,4 302 ---
01.01.2021 3,7 0,0 -0,2 1,5 2,7 0,8 94 2,3 231 0,5 1,6 188 ---

Mittelwerte (Temperaturen, Strahlung, rel. Feuchte, Wind), Summe (Regen) für 2021
11,7 0,0 8,2 9,8 78 681 3.547 1,2

Landesbetrieb Landwirtschaft Hessen 2009

      Werte bis 5 Uhr SommerzeitCSV-Datei: Eichhof21.csvDiagramm: Eichhof